Time;durP1;ratioP1;P1;durP2;ratioP2;P2;SDS_P1;SDS_P2;PMS_P1;PMS_P2;Temp;Humidity;BMP_temperature;BMP_pressure;BME280_temperature;BME280_humidity;BME280_pressure;Samples;Min_cycle;Max_cycle;Signal;HPM_P1;HPM_P2
2021/01/27 00:01:11;;;;;;;0.45;0.45;;;0.40;99.90;;;;;;5055704;28;20330;-88
2021/01/27 00:03:38;;;;;;;0.50;0.50;;;-0.10;99.90;;;;;;5055894;28;20280;-89
2021/01/27 00:06:05;;;;;;;0.50;0.50;;;-0.10;99.90;;;;;;5055796;28;20212;-88
2021/01/27 00:08:31;;;;;;;0.50;0.50;;;-0.80;99.90;;;;;;5055735;28;20287;-88
2021/01/27 00:10:57;;;;;;;0.50;0.50;;;-0.50;99.90;;;;;;5055395;28;20208;-88
2021/01/27 00:13:24;;;;;;;0.50;0.50;;;-0.20;99.90;;;;;;5055771;28;20262;-88
2021/01/27 00:15:51;;;;;;;0.50;0.50;;;-0.80;99.90;;;;;;5056276;28;20242;-88
2021/01/27 00:18:18;;;;;;;0.50;0.50;;;1.00;99.90;;;;;;5056334;28;20232;-88
2021/01/27 00:20:45;;;;;;;0.50;0.50;;;-0.50;99.90;;;;;;5057453;28;20212;-88
2021/01/27 00:23:11;;;;;;;0.50;0.50;;;-0.50;99.90;;;;;;5056842;28;20581;-88
2021/01/27 00:25:40;;;;;;;0.50;0.50;;;-0.40;99.90;;;;;;5053212;28;20200;-88
2021/01/27 00:28:08;;;;;;;0.50;0.50;;;-0.10;99.90;;;;;;5053512;28;20709;-87
2021/01/27 00:30:37;;;;;;;0.50;0.50;;;-0.30;99.90;;;;;;5050090;28;20205;-87
2021/01/27 00:33:04;;;;;;;0.50;0.50;;;-0.90;99.90;;;;;;5050752;28;20200;-87
2021/01/27 00:35:33;;;;;;;0.50;0.50;;;-0.20;99.90;;;;;;5051190;28;20215;-88
2021/01/27 00:38:01;;;;;;;0.50;0.50;;;0.40;99.90;;;;;;5051679;28;20560;-88
2021/01/27 00:40:28;;;;;;;0.50;0.50;;;-0.30;99.90;;;;;;5052272;28;20212;-87
2021/01/27 00:42:54;;;;;;;0.50;0.50;;;-0.20;99.90;;;;;;5052193;28;20516;-88
2021/01/27 00:45:22;;;;;;;0.50;0.50;;;-0.50;99.90;;;;;;5050762;28;20224;-87
2021/01/27 00:47:49;;;;;;;0.50;0.50;;;-0.40;99.90;;;;;;5050887;28;20204;-88
2021/01/27 00:50:16;;;;;;;0.50;0.50;;;-0.50;99.90;;;;;;5050826;28;20204;-88
2021/01/27 00:52:42;;;;;;;0.50;0.50;;;-0.30;99.90;;;;;;5050642;28;20291;-88
2021/01/27 00:55:14;;;;;;;0.50;0.50;;;-0.30;99.90;;;;;;5050455;28;20734;-88
2021/01/27 00:57:40;;;;;;;0.50;0.50;;;-0.20;99.90;;;;;;5050518;28;20682;-88
2021/01/27 01:00:11;;;;;;;0.50;0.50;;;2.40;99.90;;;;;;5050286;28;20235;-88
2021/01/27 01:02:40;;;;;;;0.50;0.50;;;-0.30;99.90;;;;;;5050641;28;20361;-88
2021/01/27 01:05:11;;;;;;;0.50;0.50;;;0.20;99.90;;;;;;5050370;28;20702;-88
2021/01/27 01:07:37;;;;;;;0.50;0.50;;;-0.40;99.90;;;;;;5050335;28;20824;-89
2021/01/27 01:10:06;;;;;;;0.50;0.50;;;-0.30;99.90;;;;;;5050694;28;20208;-87
2021/01/27 01:12:33;;;;;;;0.50;0.50;;;-0.50;99.90;;;;;;5050643;28;20197;-88
2021/01/27 01:14:59;;;;;;;0.47;0.47;;;-0.60;99.90;;;;;;5050162;28;20682;-88
2021/01/27 01:17:26;;;;;;;0.50;0.50;;;-0.40;99.90;;;;;;5049643;28;20212;-88
2021/01/27 01:19:52;;;;;;;0.50;0.50;;;-0.40;99.90;;;;;;5049897;28;20222;-88
2021/01/27 01:22:19;;;;;;;0.50;0.50;;;-0.20;99.90;;;;;;5050308;28;20211;-88
2021/01/27 01:24:45;;;;;;;0.50;0.50;;;-0.60;99.90;;;;;;5050939;28;20724;-88
2021/01/27 01:27:11;;;;;;;0.50;0.50;;;1.20;99.90;;;;;;5049904;28;20208;-88
2021/01/27 01:29:38;;;;;;;0.50;0.50;;;0.60;99.90;;;;;;5050152;28;20308;-89
2021/01/27 01:32:05;;;;;;;0.50;0.50;;;-1.00;99.90;;;;;;5049706;28;20729;-87
2021/01/27 01:34:31;;;;;;;0.50;0.50;;;-0.30;99.90;;;;;;5050165;28;20250;-88
2021/01/27 01:36:57;;;;;;;0.50;0.50;;;-0.40;99.90;;;;;;5049739;28;20196;-88
2021/01/27 01:39:24;;;;;;;0.50;0.50;;;2.90;99.90;;;;;;5049149;28;20543;-88
2021/01/27 01:41:51;;;;;;;0.50;0.50;;;-0.60;99.90;;;;;;5049561;28;20208;-89
2021/01/27 01:44:17;;;;;;;0.50;0.50;;;-0.60;99.90;;;;;;5049848;28;20208;-89
2021/01/27 01:46:43;;;;;;;0.50;0.50;;;-0.20;99.90;;;;;;5049715;28;20595;-88
2021/01/27 01:49:12;;;;;;;0.50;0.50;;;-0.60;99.90;;;;;;5049874;28;20250;-88
2021/01/27 01:51:45;;;;;;;0.50;0.50;;;-0.60;99.90;;;;;;5049795;28;20208;-88
2021/01/27 01:54:16;;;;;;;0.50;0.50;;;-0.50;99.90;;;;;;5049629;28;20346;-88
2021/01/27 01:57:00;;;;;;;0.50;0.50;;;-0.70;99.90;;;;;;5049547;28;20240;-87
2021/01/27 01:59:28;;;;;;;0.50;0.50;;;-0.60;99.90;;;;;;5049298;28;20228;-88
2021/01/27 02:01:59;;;;;;;0.50;0.50;;;-0.50;99.90;;;;;;5049210;28;20580;-88
2021/01/27 02:04:30;;;;;;;0.50;0.50;;;-0.60;99.90;;;;;;5049462;28;20215;-89
2021/01/27 02:06:57;;;;;;;0.50;0.50;;;-0.60;99.90;;;;;;5049348;28;20231;-89
2021/01/27 02:09:23;;;;;;;0.50;0.50;;;-0.50;99.90;;;;;;5049351;28;20850;-89
2021/01/27 02:12:11;;;;;;;0.50;0.50;;;-0.50;99.90;;;;;;5049903;28;20679;-87
2021/01/27 02:14:49;;;;;;;0.40;0.40;;;-0.40;99.90;;;;;;5049628;28;20204;-88
2021/01/27 02:17:27;;;;;;;0.50;0.50;;;0.70;99.90;;;;;;5048985;28;20193;-89
2021/01/27 02:20:36;;;;;;;0.50;0.50;;;-0.40;99.90;;;;;;5048910;28;20519;-89
2021/01/27 02:23:23;;;;;;;0.50;0.50;;;-0.30;99.90;;;;;;5049474;28;20204;-88
2021/01/27 02:26:24;;;;;;;0.50;0.50;;;-0.30;99.90;;;;;;5049323;28;20225;-87
2021/01/27 02:29:06;;;;;;;0.50;0.50;;;-0.70;99.90;;;;;;5048878;28;20266;-88
2021/01/27 02:31:40;;;;;;;0.50;0.50;;;-0.60;99.90;;;;;;5049736;28;20196;-88
2021/01/27 02:34:40;;;;;;;0.50;0.50;;;-0.30;99.90;;;;;;5049368;28;20204;-88
2021/01/27 02:37:10;;;;;;;0.50;0.50;;;0.00;99.90;;;;;;5049800;28;20196;-88
2021/01/27 02:39:43;;;;;;;0.50;0.50;;;-0.20;99.90;;;;;;5049156;28;20243;-88
2021/01/27 02:42:15;;;;;;;0.50;0.50;;;-0.40;99.90;;;;;;5048886;28;20212;-88
2021/01/27 02:44:49;;;;;;;0.50;0.50;;;-0.70;99.90;;;;;;5048631;28;20236;-88
2021/01/27 02:47:19;;;;;;;0.50;0.50;;;-0.10;99.90;;;;;;5049336;28;20208;-89
2021/01/27 02:49:51;;;;;;;0.50;0.50;;;-0.10;99.90;;;;;;5049498;28;20200;-88
2021/01/27 02:52:22;;;;;;;0.50;0.50;;;-0.10;99.90;;;;;;5049538;28;20566;-88
2021/01/27 02:54:52;;;;;;;0.50;0.50;;;-0.10;99.90;;;;;;5049314;28;20277;-88
2021/01/27 02:57:21;;;;;;;0.50;0.50;;;-0.50;99.90;;;;;;5049218;28;20242;-87
2021/01/27 02:59:53;;;;;;;0.50;0.50;;;-0.40;99.90;;;;;;5049028;28;20220;-89
2021/01/27 03:02:25;;;;;;;0.50;0.50;;;-0.30;99.90;;;;;;5048854;28;20208;-88
2021/01/27 03:04:58;;;;;;;0.50;0.50;;;0.20;99.90;;;;;;5048425;28;20204;-87
2021/01/27 03:07:30;;;;;;;0.50;0.50;;;-0.40;99.90;;;;;;5048492;28;20227;-88
2021/01/27 03:10:00;;;;;;;0.50;0.50;;;-0.30;99.90;;;;;;5048603;28;20226;-89
2021/01/27 03:12:26;;;;;;;0.50;0.50;;;-1.10;99.90;;;;;;5048500;28;20208;-88
2021/01/27 03:14:53;;;;;;;0.60;0.60;;;0.70;99.90;;;;;;5048540;28;20211;-88
2021/01/27 03:17:21;;;;;;;0.50;0.50;;;-0.10;99.90;;;;;;5048646;28;20254;-88
2021/01/27 03:19:54;;;;;;;0.50;0.50;;;0.60;99.90;;;;;;5048845;28;20714;-88
2021/01/27 03:22:24;;;;;;;0.50;0.50;;;-0.10;99.90;;;;;;5048720;28;20210;-87
2021/01/27 03:24:54;;;;;;;0.50;0.50;;;-0.70;99.90;;;;;;5048578;28;20698;-87
2021/01/27 03:27:24;;;;;;;0.50;0.50;;;-0.30;99.90;;;;;;5048403;28;20295;-87
2021/01/27 03:29:53;;;;;;;0.50;0.50;;;-0.30;99.90;;;;;;5049182;28;20226;-87
2021/01/27 03:32:25;;;;;;;0.50;0.50;;;-0.50;99.90;;;;;;5052038;28;20216;-87
2021/01/27 03:35:00;;;;;;;0.50;0.50;;;0.10;99.90;;;;;;5051771;28;20208;-88
2021/01/27 03:37:30;;;;;;;0.50;0.50;;;-0.40;99.90;;;;;;5051525;28;20243;-88
2021/01/27 03:40:01;;;;;;;0.50;0.50;;;-0.30;99.90;;;;;;5051397;28;20228;-88
2021/01/27 03:42:32;;;;;;;0.50;0.50;;;-0.20;99.90;;;;;;5052346;28;20207;-88
2021/01/27 03:45:07;;;;;;;0.50;0.50;;;1.90;99.90;;;;;;5052018;28;20236;-87
2021/01/27 03:47:39;;;;;;;0.50;0.50;;;0.00;99.90;;;;;;5052448;28;20208;-88
2021/01/27 03:50:11;;;;;;;0.50;0.50;;;0.00;99.90;;;;;;5051515;28;20200;-88
2021/01/27 03:52:42;;;;;;;0.50;0.50;;;0.00;99.90;;;;;;5051836;28;20208;-87
2021/01/27 03:55:16;;;;;;;0.50;0.50;;;2.00;99.90;;;;;;5051471;28;20203;-87
2021/01/27 03:57:49;;;;;;;0.50;0.50;;;0.10;99.90;;;;;;5051711;28;20254;-88
2021/01/27 04:00:16;;;;;;;0.50;0.50;;;-0.10;99.90;;;;;;5051589;28;20220;-88
2021/01/27 04:02:42;;;;;;;0.50;0.50;;;0.40;99.90;;;;;;5051518;28;20604;-88
2021/01/27 04:05:09;;;;;;;0.50;0.50;;;0.10;99.90;;;;;;5051366;28;20204;-88
2021/01/27 04:07:39;;;;;;;0.50;0.50;;;0.20;99.90;;;;;;5051829;28;20204;-87
2021/01/27 04:10:06;;;;;;;0.50;0.50;;;-0.30;99.90;;;;;;5052844;28;20201;-88
2021/01/27 04:12:33;;;;;;;0.50;0.50;;;0.20;99.90;;;;;;5053231;28;20208;-89
2021/01/27 04:15:00;;;;;;;0.50;0.50;;;0.20;99.90;;;;;;5052652;28;20200;-88
2021/01/27 04:17:28;;;;;;;0.50;0.50;;;0.10;99.90;;;;;;5052219;28;20278;-88
2021/01/27 04:19:56;;;;;;;0.50;0.50;;;1.40;99.90;;;;;;5051347;28;20275;-88
2021/01/27 04:22:23;;;;;;;0.50;0.50;;;0.40;99.90;;;;;;5050846;28;20208;-88
2021/01/27 04:24:49;;;;;;;0.50;0.50;;;-0.70;99.90;;;;;;5050969;28;20200;-88
2021/01/27 04:27:16;;;;;;;0.50;0.50;;;0.50;99.90;;;;;;5051724;28;20567;-88
2021/01/27 04:29:43;;;;;;;0.50;0.50;;;0.60;99.90;;;;;;5051261;28;20231;-88
2021/01/27 04:32:10;;;;;;;0.50;0.50;;;1.00;99.90;;;;;;5051420;28;20208;-88
2021/01/27 04:34:36;;;;;;;0.50;0.50;;;0.30;99.90;;;;;;5051456;28;20198;-88
2021/01/27 04:37:03;;;;;;;0.50;0.50;;;0.40;99.90;;;;;;5051654;28;20219;-88
2021/01/27 04:39:29;;;;;;;0.47;0.47;;;1.60;99.90;;;;;;5050968;28;20691;-88
2021/01/27 04:41:56;;;;;;;0.50;0.50;;;0.30;99.90;;;;;;5050346;28;20345;-87
2021/01/27 04:44:23;;;;;;;0.43;0.43;;;0.40;99.90;;;;;;5050512;28;20275;-88
2021/01/27 04:47:00;;;;;;;0.43;0.43;;;0.40;99.90;;;;;;5050794;28;20268;-88
2021/01/27 04:49:29;;;;;;;0.50;0.50;;;0.30;99.90;;;;;;5050309;28;20756;-88
2021/01/27 04:52:04;;;;;;;0.50;0.50;;;0.40;99.90;;;;;;5050537;28;20212;-88
2021/01/27 04:54:47;;;;;;;0.50;0.50;;;0.30;99.90;;;;;;5051211;28;20199;-88
2021/01/27 04:57:38;;;;;;;0.50;0.50;;;0.40;99.90;;;;;;5050347;28;20203;-88
2021/01/27 05:00:17;;;;;;;0.50;0.50;;;0.40;99.90;;;;;;5050447;28;20232;-89
2021/01/27 05:02:59;;;;;;;0.50;0.50;;;0.50;99.90;;;;;;5050548;28;20212;-88
2021/01/27 05:05:27;;;;;;;0.50;0.50;;;0.40;99.90;;;;;;5050270;28;20677;-88
2021/01/27 05:08:04;;;;;;;0.50;0.50;;;0.20;99.90;;;;;;5049819;28;20193;-88
2021/01/27 05:10:42;;;;;;;0.50;0.50;;;0.90;99.90;;;;;;5050645;28;20200;-88
2021/01/27 05:13:25;;;;;;;0.50;0.50;;;1.40;99.90;;;;;;5050035;28;20214;-89
2021/01/27 05:15:56;;;;;;;0.50;0.50;;;0.30;99.90;;;;;;5049677;28;20212;-88
2021/01/27 05:18:24;;;;;;;0.50;0.50;;;0.60;99.90;;;;;;5049728;28;20200;-89
2021/01/27 05:20:51;;;;;;;0.50;0.50;;;0.30;99.90;;;;;;5049738;28;20192;-88
2021/01/27 05:23:18;;;;;;;0.50;0.50;;;0.00;99.90;;;;;;5050349;28;20200;-88
2021/01/27 05:25:48;;;;;;;0.50;0.50;;;1.20;99.90;;;;;;5049950;28;20199;-88
2021/01/27 05:28:18;;;;;;;0.50;0.50;;;0.30;99.90;;;;;;5049868;28;20208;-88
2021/01/27 05:30:52;;;;;;;0.50;0.50;;;2.10;99.90;;;;;;5050079;28;20204;-89
2021/01/27 05:33:19;;;;;;;0.50;0.50;;;0.50;99.90;;;;;;5050000;28;20639;-88
2021/01/27 05:35:47;;;;;;;0.50;0.50;;;0.70;99.90;;;;;;5050260;28;20204;-89
2021/01/27 05:38:28;;;;;;;0.50;0.50;;;0.10;99.90;;;;;;5049697;28;20219;-89
2021/01/27 05:41:05;;;;;;;0.50;0.50;;;0.90;99.90;;;;;;5049732;28;20411;-89
2021/01/27 05:43:32;;;;;;;0.50;0.50;;;0.50;99.90;;;;;;5050343;28;20219;-88
2021/01/27 05:46:14;;;;;;;0.50;0.50;;;1.30;99.90;;;;;;5048993;28;20331;-89
2021/01/27 05:48:50;;;;;;;0.50;0.50;;;0.50;99.90;;;;;;5049436;28;20196;-88
2021/01/27 05:51:27;;;;;;;0.50;0.50;;;-0.20;99.90;;;;;;5049646;28;20207;-88
2021/01/27 05:53:54;;;;;;;0.40;0.40;;;0.50;99.90;;;;;;5048818;28;20433;-89
2021/01/27 05:56:22;;;;;;;0.50;0.50;;;1.20;99.90;;;;;;5049422;28;20192;-88
2021/01/27 05:58:58;;;;;;;0.43;0.43;;;0.10;99.90;;;;;;5049589;28;20715;-89
2021/01/27 06:01:39;;;;;;;0.50;0.50;;;0.30;99.90;;;;;;5049439;28;20208;-88
2021/01/27 06:04:22;;;;;;;0.50;0.50;;;0.60;99.90;;;;;;5049726;28;20266;-88
2021/01/27 06:07:03;;;;;;;0.50;0.50;;;0.80;99.90;;;;;;5049524;28;20273;-89
2021/01/27 06:09:33;;;;;;;0.40;0.40;;;0.00;99.90;;;;;;5049618;28;20197;-89
2021/01/27 06:12:00;;;;;;;0.50;0.50;;;0.60;99.90;;;;;;5049255;28;20215;-88
2021/01/27 06:14:27;;;;;;;0.50;0.50;;;0.60;99.90;;;;;;5048840;28;20246;-88
2021/01/27 06:16:53;;;;;;;0.50;0.50;;;0.40;99.90;;;;;;5048956;28;20227;-88
2021/01/27 06:19:22;;;;;;;0.50;0.50;;;0.60;99.90;;;;;;5047788;28;20220;-88
2021/01/27 06:22:23;;;;;;;0.50;0.50;;;0.50;99.90;;;;;;5049515;28;20659;-88
2021/01/27 06:25:09;;;;;;;0.47;0.47;;;0.60;99.90;;;;;;5049384;28;20203;-87
2021/01/27 06:27:55;;;;;;;0.50;0.50;;;1.40;99.90;;;;;;5049221;28;20210;-87
2021/01/27 06:30:45;;;;;;;0.50;0.50;;;0.80;99.90;;;;;;5048348;28;20254;-88
2021/01/27 06:33:53;;;;;;;0.50;0.50;;;0.70;99.90;;;;;;5046822;28;20253;-89
2021/01/27 06:36:47;;;;;;;0.50;0.50;;;0.70;99.90;;;;;;5048716;28;20227;-88
2021/01/27 06:39:56;;;;;;;0.50;0.50;;;0.70;99.90;;;;;;5047018;28;20224;-89
2021/01/27 06:42:43;;;;;;;0.50;0.50;;;0.60;99.90;;;;;;5046981;28;20211;-88
2021/01/27 06:45:19;;;;;;;0.50;0.50;;;-0.80;99.90;;;;;;5044887;28;20455;-88
2021/01/27 06:48:32;;;;;;;0.50;0.50;;;0.50;99.90;;;;;;5013909;28;20192;-89
2021/01/27 06:51:42;;;;;;;0.50;0.50;;;-0.30;99.90;;;;;;4964784;28;20203;-88
2021/01/27 06:54:46;;;;;;;0.50;0.50;;;0.10;99.90;;;;;;4916369;29;20209;-88
2021/01/27 06:57:32;;;;;;;0.50;0.50;;;0.70;99.90;;;;;;4946004;28;20210;-89
2021/01/27 07:00:20;;;;;;;0.50;0.50;;;0.60;99.90;;;;;;5040110;28;20233;-87
2021/01/27 07:03:23;;;;;;;0.50;0.50;;;0.60;99.90;;;;;;5053032;28;20200;-87
2021/01/27 07:06:09;;;;;;;0.50;0.50;;;0.10;99.90;;;;;;5057014;28;20552;-89
2021/01/27 07:08:56;;;;;;;0.50;0.50;;;1.10;99.90;;;;;;5052984;28;20652;-87
2021/01/27 07:11:31;;;;;;;0.50;0.50;;;0.20;99.90;;;;;;5053097;28;20199;-88
2021/01/27 07:14:25;;;;;;;0.43;0.43;;;0.70;99.90;;;;;;5053658;28;20207;-87
2021/01/27 07:17:06;;;;;;;0.50;0.50;;;0.90;99.90;;;;;;5058935;28;20212;-87
2021/01/27 07:23:14;;;;;;;0.50;0.50;;;0.60;99.90;;;;;;4852207;29;20219;-88
2021/01/27 07:25:55;;;;;;;0.50;0.50;;;0.50;99.90;;;;;;4970944;28;20840;-89
2021/01/27 07:28:33;;;;;;;0.40;0.40;;;0.90;99.90;;;;;;5023127;28;20205;-88
2021/01/27 07:31:13;;;;;;;0.50;0.50;;;0.00;99.90;;;;;;5043275;28;20208;-87
2021/01/27 07:36:51;;;;;;;0.50;0.50;;;0.70;99.90;;;;;;4982397;28;20207;-88
2021/01/27 07:39:47;;;;;;;0.50;0.50;;;3.20;99.90;;;;;;5037806;28;20320;-89
2021/01/27 07:42:20;;;;;;;0.40;0.40;;;0.50;99.90;;;;;;5052786;28;20563;-88
2021/01/27 07:44:59;;;;;;;0.45;0.45;;;0.10;99.90;;;;;;5052764;28;20264;-88
2021/01/27 07:47:45;;;;;;;0.50;0.50;;;0.10;99.90;;;;;;5048454;28;20208;-89
2021/01/27 07:50:13;;;;;;;0.50;0.50;;;0.10;99.90;;;;;;5049392;28;20199;-88
2021/01/27 07:52:49;;;;;;;0.50;0.50;;;0.70;99.90;;;;;;5043460;28;20290;-89
2021/01/27 07:55:25;;;;;;;0.50;0.50;;;0.40;99.90;;;;;;5051722;28;20258;-89
2021/01/27 07:58:03;;;;;;;0.50;0.50;;;2.90;99.90;;;;;;5035238;28;20204;-88
2021/01/27 08:03:29;;;;;;;0.50;0.50;;;0.90;99.90;;;;;;5046965;28;20299;-88
2021/01/27 08:06:03;;;;;;;0.50;0.50;;;0.70;99.90;;;;;;5052283;28;20242;-88
2021/01/27 08:08:33;;;;;;;0.50;0.50;;;0.70;99.90;;;;;;5052308;28;20205;-89
2021/01/27 08:11:16;;;;;;;0.50;0.50;;;0.60;99.90;;;;;;5043672;28;20793;-89
2021/01/27 08:13:44;;;;;;;0.47;0.47;;;0.60;99.90;;;;;;5053203;28;20200;-88
2021/01/27 08:16:33;;;;;;;0.50;0.50;;;3.10;99.90;;;;;;5050389;28;20212;-88
2021/01/27 08:19:27;;;;;;;0.50;0.50;;;0.80;99.90;;;;;;5053792;28;20310;-88
2021/01/27 08:22:03;;;;;;;0.50;0.50;;;0.60;99.90;;;;;;5053467;28;20207;-87
2021/01/27 08:24:52;;;;;;;0.50;0.50;;;0.10;99.90;;;;;;5051917;28;20671;-88
2021/01/27 08:27:33;;;;;;;0.50;0.50;;;1.30;99.90;;;;;;5050693;28;20212;-88
2021/01/27 08:30:24;;;;;;;0.50;0.50;;;0.40;99.90;;;;;;5053828;28;20655;-89
2021/01/27 08:33:30;;;;;;;0.50;0.50;;;0.90;99.90;;;;;;5052791;28;20288;-88
2021/01/27 08:36:07;;;;;;;0.50;0.50;;;0.70;99.90;;;;;;5054983;28;20203;-89
2021/01/27 08:38:43;;;;;;;0.47;0.47;;;0.60;99.90;;;;;;5054050;28;20274;-87
2021/01/27 08:41:38;;;;;;;0.50;0.50;;;0.00;99.90;;;;;;5054835;28;20206;-87
2021/01/27 08:44:17;;;;;;;0.50;0.50;;;0.80;99.90;;;;;;5054699;28;20624;-88
2021/01/27 08:46:53;;;;;;;0.47;0.47;;;0.80;99.90;;;;;;5054016;28;20721;-88
2021/01/27 08:49:42;;;;;;;0.50;0.50;;;0.60;99.90;;;;;;5054105;28;20204;-88
2021/01/27 08:52:39;;;;;;;0.40;0.40;;;1.30;99.90;;;;;;5053132;28;20242;-88
2021/01/27 08:56:03;;;;;;;0.50;0.50;;;1.80;99.90;;;;;;5053851;28;20295;-88
2021/01/27 08:58:38;;;;;;;0.40;0.40;;;1.10;99.90;;;;;;5053911;28;20201;-88
2021/01/27 09:01:12;;;;;;;0.50;0.50;;;-0.20;99.90;;;;;;5053702;28;20608;-88
2021/01/27 09:04:00;;;;;;;0.50;0.50;;;2.10;99.90;;;;;;5052497;28;20205;-89
2021/01/27 09:06:34;;;;;;;0.50;0.50;;;1.00;99.90;;;;;;5054681;28;20232;-87
2021/01/27 09:09:23;;;;;;;0.50;0.50;;;0.50;99.90;;;;;;5054130;28;20200;-88
2021/01/27 09:12:00;;;;;;;0.50;0.50;;;0.80;99.90;;;;;;5054163;28;20201;-89
2021/01/27 09:14:39;;;;;;;0.50;0.50;;;0.90;99.90;;;;;;5053091;28;20644;-88
2021/01/27 09:20:22;;;;;;;0.45;0.45;;;0.70;99.90;;;;;;5025339;28;20223;-88
2021/01/27 09:23:28;;;;;;;0.40;0.40;;;0.50;99.90;;;;;;5048867;28;20746;-88
2021/01/27 09:26:03;;;;;;;0.50;0.50;;;0.90;99.90;;;;;;5060113;28;20209;-88
2021/01/27 09:28:29;;;;;;;0.50;0.50;;;1.00;99.90;;;;;;5051760;28;20199;-87
2021/01/27 09:30:56;;;;;;;0.50;0.50;;;1.20;99.90;;;;;;5052821;28;20200;-87
2021/01/27 09:33:29;;;;;;;0.40;0.40;;;0.90;99.90;;;;;;5052601;28;20291;-86
2021/01/27 09:36:07;;;;;;;0.50;0.50;;;1.00;99.90;;;;;;5052639;28;20196;-87
2021/01/27 09:38:34;;;;;;;0.50;0.50;;;1.00;99.90;;;;;;5052827;28;20212;-86
2021/01/27 09:41:04;;;;;;;0.50;0.50;;;0.80;99.90;;;;;;5052644;28;20196;-87
2021/01/27 09:43:36;;;;;;;0.50;0.50;;;1.20;99.90;;;;;;5055870;28;20207;-87
2021/01/27 09:46:24;;;;;;;0.50;0.50;;;0.90;99.90;;;;;;5052789;28;20231;-87
2021/01/27 09:48:52;;;;;;;0.50;0.50;;;1.20;99.90;;;;;;5051735;28;20204;-87
2021/01/27 09:51:18;;;;;;;0.50;0.50;;;1.20;99.90;;;;;;5050344;28;20277;-86
2021/01/27 09:53:46;;;;;;;0.50;0.50;;;2.30;99.90;;;;;;5052638;28;20204;-87
2021/01/27 09:56:17;;;;;;;0.50;0.50;;;1.30;99.90;;;;;;5052018;28;20227;-88
2021/01/27 09:58:44;;;;;;;0.50;0.50;;;1.40;99.90;;;;;;5050492;28;20283;-87
2021/01/27 10:01:16;;;;;;;0.40;0.40;;;1.50;99.90;;;;;;5049776;28;20943;-87
2021/01/27 10:03:44;;;;;;;0.50;0.50;;;1.30;99.90;;;;;;5049565;28;20201;-87
2021/01/27 10:06:31;;;;;;;0.50;0.50;;;1.50;99.90;;;;;;5050538;28;20621;-86
2021/01/27 10:08:59;;;;;;;0.50;0.50;;;1.50;99.90;;;;;;5052311;28;20196;-86
2021/01/27 10:11:30;;;;;;;0.50;0.50;;;1.50;99.90;;;;;;5052515;28;20734;-86
2021/01/27 10:14:03;;;;;;;0.50;0.50;;;3.80;99.90;;;;;;5052249;28;20201;-87
2021/01/27 10:16:29;;;;;;;0.50;0.50;;;1.70;99.90;;;;;;5051406;28;20265;-86
2021/01/27 10:19:03;;;;;;;0.50;0.50;;;1.60;99.90;;;;;;5050279;28;20702;-87
2021/01/27 10:21:30;;;;;;;0.50;0.50;;;1.70;99.90;;;;;;5049973;28;20611;-87
2021/01/27 10:23:58;;;;;;;0.50;0.50;;;1.80;99.90;;;;;;5050234;28;20221;-87
2021/01/27 10:26:35;;;;;;;0.50;0.50;;;1.70;99.90;;;;;;5051177;28;20200;-87
2021/01/27 10:29:26;;;;;;;0.55;0.55;;;1.80;99.90;;;;;;5052326;28;20724;-86
2021/01/27 10:31:54;;;;;;;0.50;0.50;;;2.10;99.90;;;;;;5049663;28;20280;-87
2021/01/27 10:34:42;;;;;;;0.50;0.50;;;1.90;99.90;;;;;;5052213;28;20204;-87
2021/01/27 10:37:36;;;;;;;0.50;0.50;;;2.30;99.90;;;;;;5047301;28;20840;-86
2021/01/27 10:40:12;;;;;;;0.60;0.60;;;2.10;99.90;;;;;;5055508;28;20228;-87
2021/01/27 10:42:42;;;;;;;0.50;0.50;;;2.10;99.90;;;;;;5058415;28;20957;-86
2021/01/27 10:45:16;;;;;;;0.60;0.60;;;2.20;99.90;;;;;;5051574;28;20746;-86
2021/01/27 10:47:45;;;;;;;0.50;0.50;;;2.30;99.90;;;;;;5055922;28;20266;-86
2021/01/27 10:50:12;;;;;;;0.50;0.50;;;2.30;99.90;;;;;;5053483;28;20273;-86
2021/01/27 10:52:38;;;;;;;0.60;0.60;;;4.10;99.90;;;;;;5052898;28;21281;-88
2021/01/27 10:55:10;;;;;;;0.50;0.50;;;2.40;99.90;;;;;;5052841;28;20228;-87
2021/01/27 10:57:37;;;;;;;0.60;0.60;;;2.40;99.90;;;;;;5057182;28;20208;-86
2021/01/27 11:00:05;;;;;;;0.60;0.60;;;2.30;99.90;;;;;;5055515;28;20697;-87
2021/01/27 11:02:32;;;;;;;0.57;0.57;;;2.40;99.90;;;;;;5055037;28;20197;-87
2021/01/27 11:04:58;;;;;;;0.50;0.50;;;1.40;99.90;;;;;;5055530;28;20733;-87
2021/01/27 11:07:25;;;;;;;0.50;0.50;;;2.50;99.90;;;;;;5055450;28;20204;-87
2021/01/27 11:09:51;;;;;;;0.60;0.60;;;2.60;99.90;;;;;;5051966;28;20205;-88
2021/01/27 11:12:17;;;;;;;0.50;0.50;;;2.10;99.90;;;;;;5058544;28;20204;-87
2021/01/27 11:14:44;;;;;;;0.60;0.60;;;3.70;99.90;;;;;;5058651;28;20204;-87
2021/01/27 11:17:11;;;;;;;0.60;0.60;;;2.20;99.90;;;;;;5056068;28;20414;-86
2021/01/27 11:19:37;;;;;;;0.50;0.50;;;3.70;99.90;;;;;;5055643;28;20616;-87
2021/01/27 11:22:03;;;;;;;0.60;0.60;;;2.90;99.90;;;;;;5053656;28;20208;-86
2021/01/27 11:24:30;;;;;;;0.50;0.50;;;2.70;99.90;;;;;;5055324;28;20527;-87
2021/01/27 11:26:56;;;;;;;0.60;0.60;;;2.90;99.90;;;;;;5057744;28;20211;-86
2021/01/27 11:29:22;;;;;;;0.60;0.60;;;2.60;99.90;;;;;;5053532;28;20274;-86
2021/01/27 11:31:48;;;;;;;0.50;0.50;;;2.90;99.90;;;;;;5055226;28;20232;-86
2021/01/27 11:34:16;;;;;;;0.50;0.50;;;3.20;99.90;;;;;;5055012;28;20200;-86
2021/01/27 11:36:42;;;;;;;0.50;0.50;;;3.40;99.90;;;;;;5054881;28;20567;-86
2021/01/27 11:39:10;;;;;;;0.60;0.60;;;3.40;99.90;;;;;;5054634;28;20239;-87
2021/01/27 11:41:37;;;;;;;0.60;0.60;;;3.20;99.90;;;;;;5054718;28;20205;-86
2021/01/27 11:44:03;;;;;;;0.50;0.50;;;3.20;99.90;;;;;;5070085;28;20208;-86
2021/01/27 11:46:30;;;;;;;0.60;0.60;;;3.20;99.90;;;;;;5055203;28;20584;-86
2021/01/27 11:48:56;;;;;;;0.50;0.50;;;3.20;99.90;;;;;;5055249;28;20212;-86
2021/01/27 11:51:23;;;;;;;0.60;0.60;;;3.30;99.90;;;;;;5053870;28;20208;-86
2021/01/27 11:53:50;;;;;;;0.60;0.60;;;3.70;99.90;;;;;;5055067;28;20208;-86
2021/01/27 11:56:16;;;;;;;0.60;0.60;;;2.60;99.90;;;;;;5049183;28;20201;-88
2021/01/27 11:58:42;;;;;;;0.60;0.60;;;3.60;99.90;;;;;;5043270;28;20204;-86
2021/01/27 12:01:09;;;;;;;0.60;0.60;;;3.30;99.90;;;;;;5054404;28;20442;-86
2021/01/27 12:03:35;;;;;;;0.50;0.50;;;4.20;99.90;;;;;;5054600;28;20208;-86
2021/01/27 12:06:01;;;;;;;0.60;0.60;;;4.60;99.90;;;;;;5050631;28;20312;-86
2021/01/27 12:08:28;;;;;;;0.60;0.60;;;5.60;99.90;;;;;;5041819;28;20211;-86
2021/01/27 12:11:00;;;;;;;0.60;0.60;;;5.10;99.90;;;;;;5053990;28;20207;-86
2021/01/27 12:13:26;;;;;;;0.60;0.60;;;4.90;99.90;;;;;;5054852;28;20204;-85
2021/01/27 12:15:53;;;;;;;0.50;0.50;;;4.80;99.90;;;;;;5055224;28;20216;-85
2021/01/27 12:18:19;;;;;;;0.60;0.60;;;4.20;99.90;;;;;;5054869;28;20201;-85
2021/01/27 12:20:47;;;;;;;0.50;0.50;;;4.40;99.90;;;;;;5054777;28;20228;-85
2021/01/27 12:23:13;;;;;;;0.60;0.60;;;3.90;99.90;;;;;;5054562;28;20365;-86
2021/01/27 12:25:41;;;;;;;0.60;0.60;;;3.90;99.90;;;;;;5054144;28;20303;-87
2021/01/27 12:28:07;;;;;;;0.60;0.60;;;5.20;99.90;;;;;;5053788;28;20696;-87
2021/01/27 12:30:33;;;;;;;0.60;0.60;;;4.20;99.90;;;;;;5051617;28;20200;-86
2021/01/27 12:32:59;;;;;;;0.60;0.60;;;4.10;99.90;;;;;;5053178;28;20201;-85
2021/01/27 12:35:32;;;;;;;0.52;0.52;;;4.00;99.90;;;;;;5053166;28;20211;-85
2021/01/27 12:37:59;;;;;;;0.60;0.60;;;4.10;99.90;;;;;;5047513;28;20209;-85
2021/01/27 12:40:25;;;;;;;0.60;0.60;;;3.90;99.90;;;;;;5051652;28;20265;-86
2021/01/27 12:42:52;;;;;;;0.60;0.60;;;3.60;99.90;;;;;;5057632;28;20208;-85
2021/01/27 12:45:21;;;;;;;0.50;0.50;;;3.60;99.90;;;;;;5053230;28;20288;-86
2021/01/27 12:47:47;;;;;;;0.60;0.60;;;3.70;99.90;;;;;;5046703;28;20202;-86
2021/01/27 12:50:14;;;;;;;0.60;0.60;;;3.70;99.90;;;;;;5049238;28;20664;-86
2021/01/27 12:52:41;;;;;;;0.55;0.55;;;3.60;99.90;;;;;;5042522;28;20211;-85
2021/01/27 12:55:10;;;;;;;0.60;0.60;;;3.50;99.90;;;;;;5041717;28;20231;-86
2021/01/27 12:57:36;;;;;;;0.57;0.57;;;3.50;99.90;;;;;;5049538;28;20212;-85
2021/01/27 13:00:06;;;;;;;0.52;0.52;;;3.50;99.90;;;;;;5065063;28;20565;-85
2021/01/27 13:02:32;;;;;;;0.52;0.52;;;3.40;99.90;;;;;;5053102;28;20204;-85
2021/01/27 13:04:59;;;;;;;0.60;0.60;;;3.40;99.90;;;;;;5053531;28;20261;-85
2021/01/27 13:07:25;;;;;;;0.60;0.60;;;3.10;99.90;;;;;;5036907;28;20201;-85
2021/01/27 13:09:51;;;;;;;0.60;0.60;;;3.30;99.90;;;;;;5051357;28;20207;-85
2021/01/27 13:12:17;;;;;;;0.50;0.50;;;4.60;99.90;;;;;;5052659;28;20200;-85
2021/01/27 13:14:48;;;;;;;0.60;0.60;;;2.90;99.90;;;;;;5047069;28;20212;-85
2021/01/27 13:17:15;;;;;;;0.60;0.60;;;3.20;99.90;;;;;;5046582;28;20197;-85
2021/01/27 13:19:42;;;;;;;0.60;0.60;;;3.60;99.90;;;;;;5037009;28;20646;-86
2021/01/27 13:22:08;;;;;;;0.60;0.60;;;4.80;99.90;;;;;;5035839;28;20208;-85
2021/01/27 13:24:34;;;;;;;0.60;0.60;;;3.10;99.90;;;;;;5034504;28;20224;-85
2021/01/27 13:27:00;;;;;;;0.60;0.60;;;3.30;99.90;;;;;;5049860;28;20204;-85
2021/01/27 13:29:27;;;;;;;0.60;0.60;;;4.50;99.90;;;;;;5040471;28;20255;-84
2021/01/27 13:31:54;;;;;;;0.55;0.55;;;2.90;99.90;;;;;;5063790;28;20211;-85
2021/01/27 13:34:22;;;;;;;0.60;0.60;;;2.60;99.90;;;;;;5033185;28;20197;-86
2021/01/27 13:36:50;;;;;;;0.52;0.52;;;2.60;99.90;;;;;;5046989;28;20204;-85
2021/01/27 13:39:17;;;;;;;0.60;0.60;;;2.70;99.90;;;;;;5039906;28;20228;-85